Arnold, Illinois
Current Conditions -  °F | °C
As of 4:15 AM on Sunday 25 Jan 2015 (Local Time) from KIJX Reporting Station
Moderate Rain Moderate Rain  
Wind Chill:   Ceiling: 4400
Heat Index:   Visibility: 10mi
Dew Point:   Wind: 5mph
Humidity: 73%   Direction: 230°SW
Pressure: 29.59"   Gusts: NA
Location:  39.7413°N, 90.2138°W
Report Text: KIJX 251015Z AUTO 23004KT 10SM RA BKN044 OVC050 07/03 A2959 RMK AO2 T00700025
Loading
Personal Weather Stations






























Interactive Weather Map New forecast layout! Learn more

10-Day Weather Forecast

Advertisements
Track Severe Weather on mobile